sensor_id;sensor_type;location;lat;lon;timestamp;pressure;altitude;pressure_sealevel;temperature;humidity
13241;BME280;6687;47.790;7.322;2024-02-28T06:19:12;99237.56;;;6.33;94.86
13241;BME280;6687;47.790;7.322;2024-02-28T06:21:39;99248.94;;;6.82;95.93
13241;BME280;6687;47.790;7.322;2024-02-28T06:24:06;99249.88;;;6.46;94.18
13241;BME280;6687;47.790;7.322;2024-02-28T06:26:32;99256.50;;;6.73;93.89
13241;BME280;6687;47.790;7.322;2024-02-28T06:28:59;99257.72;;;6.52;93.82
13241;BME280;6687;47.790;7.322;2024-02-28T06:31:29;99259.25;;;6.44;93.69
13241;BME280;6687;47.790;7.322;2024-02-28T06:33:56;99257.94;;;6.62;93.59
13241;BME280;6687;47.790;7.322;2024-02-28T06:36:24;99260.84;;;6.37;93.43
13241;BME280;6687;47.790;7.322;2024-02-28T06:38:51;99267.56;;;6.69;93.94
13241;BME280;6687;47.790;7.322;2024-02-28T06:41:18;99272.84;;;6.37;93.51
13241;BME280;6687;47.790;7.322;2024-02-28T06:43:44;99284.97;;;6.43;93.99
13241;BME280;6687;47.790;7.322;2024-02-28T06:46:11;99282.00;;;6.26;93.23
13241;BME280;6687;47.790;7.322;2024-02-28T06:48:38;99288.03;;;6.63;92.83
13241;BME280;6687;47.790;7.322;2024-02-28T06:51:05;99281.38;;;6.74;93.00
13241;BME280;6687;47.790;7.322;2024-02-28T06:53:33;99293.75;;;6.51;91.62
13241;BME280;6687;47.790;7.322;2024-02-28T06:56:01;99291.56;;;6.68;92.36
13241;BME280;6687;47.790;7.322;2024-02-28T06:58:28;99303.56;;;6.31;92.01
13241;BME280;6687;47.790;7.322;2024-02-28T07:00:55;99293.72;;;6.49;95.62
13241;BME280;6687;47.790;7.322;2024-02-28T07:03:21;99297.34;;;6.23;93.02
13241;BME280;6687;47.790;7.322;2024-02-28T07:05:48;99302.44;;;6.20;92.99
13241;BME280;6687;47.790;7.322;2024-02-28T07:08:15;99307.63;;;6.23;92.99
13241;BME280;6687;47.790;7.322;2024-02-28T07:10:43;99308.25;;;6.47;95.78
13241;BME280;6687;47.790;7.322;2024-02-28T07:13:14;99316.50;;;6.34;93.21
13241;BME280;6687;47.790;7.322;2024-02-28T07:15:41;99315.53;;;6.30;93.02
13241;BME280;6687;47.790;7.322;2024-02-28T07:18:09;99316.19;;;6.22;93.67
13241;BME280;6687;47.790;7.322;2024-02-28T07:20:35;99323.06;;;6.21;92.99
13241;BME280;6687;47.790;7.322;2024-02-28T07:23:02;99327.13;;;6.13;95.30
13241;BME280;6687;47.790;7.322;2024-02-28T07:25:29;99320.28;;;6.13;93.85
13241;BME280;6687;47.790;7.322;2024-02-28T07:27:59;99329.41;;;6.02;93.89
13241;BME280;6687;47.790;7.322;2024-02-28T07:30:26;99333.78;;;5.74;94.76
13241;BME280;6687;47.790;7.322;2024-02-28T07:32:53;99333.13;;;5.82;95.06
13241;BME280;6687;47.790;7.322;2024-02-28T07:35:20;99339.44;;;5.93;94.20
13241;BME280;6687;47.790;7.322;2024-02-28T07:37:49;99340.84;;;5.82;95.35
13241;BME280;6687;47.790;7.322;2024-02-28T07:40:15;99339.63;;;5.67;95.75
13241;BME280;6687;47.790;7.322;2024-02-28T07:42:42;99341.94;;;5.90;95.73
13241;BME280;6687;47.790;7.322;2024-02-28T07:45:10;99343.84;;;5.95;95.27
13241;BME280;6687;47.790;7.322;2024-02-28T07:47:37;99343.38;;;5.80;95.25
13241;BME280;6687;47.790;7.322;2024-02-28T07:50:05;99347.31;;;5.97;95.49
13241;BME280;6687;47.790;7.322;2024-02-28T07:52:31;99350.47;;;6.21;94.05
13241;BME280;6687;47.790;7.322;2024-02-28T07:55:00;99348.13;;;5.95;95.02
13241;BME280;6687;47.790;7.322;2024-02-28T07:57:27;99350.50;;;5.90;95.04
13241;BME280;6687;47.790;7.322;2024-02-28T07:59:54;99357.91;;;6.10;94.13
13241;BME280;6687;47.790;7.322;2024-02-28T08:02:22;99368.31;;;6.13;94.93
13241;BME280;6687;47.790;7.322;2024-02-28T08:04:49;99367.41;;;6.12;94.35
13241;BME280;6687;47.790;7.322;2024-02-28T08:07:16;99368.41;;;6.17;94.97
13241;BME280;6687;47.790;7.322;2024-02-28T08:09:42;99375.66;;;5.99;95.91
13241;BME280;6687;47.790;7.322;2024-02-28T08:12:09;99370.94;;;6.16;95.80
13241;BME280;6687;47.790;7.322;2024-02-28T08:14:36;99376.53;;;6.33;95.02
13241;BME280;6687;47.790;7.322;2024-02-28T08:17:03;99368.41;;;6.17;95.35
13241;BME280;6687;47.790;7.322;2024-02-28T08:19:31;99374.06;;;6.04;94.90
13241;BME280;6687;47.790;7.322;2024-02-28T08:21:57;99390.16;;;6.29;95.09
13241;BME280;6687;47.790;7.322;2024-02-28T08:24:24;99385.75;;;6.25;94.80
13241;BME280;6687;47.790;7.322;2024-02-28T08:26:51;99384.09;;;6.28;95.83
13241;BME280;6687;47.790;7.322;2024-02-28T08:29:17;99386.25;;;6.11;95.17
13241;BME280;6687;47.790;7.322;2024-02-28T08:31:44;99388.91;;;6.14;94.62
13241;BME280;6687;47.790;7.322;2024-02-28T08:34:11;99395.19;;;6.26;95.06
13241;BME280;6687;47.790;7.322;2024-02-28T08:36:39;99389.00;;;6.52;94.90
13241;BME280;6687;47.790;7.322;2024-02-28T08:39:05;99393.03;;;6.41;95.53
13241;BME280;6687;47.790;7.322;2024-02-28T08:41:34;99390.16;;;6.29;94.17
13241;BME280;6687;47.790;7.322;2024-02-28T08:44:01;99391.72;;;6.57;94.59
13241;BME280;6687;47.790;7.322;2024-02-28T08:46:28;99393.88;;;6.75;93.80
13241;BME280;6687;47.790;7.322;2024-02-28T08:48:54;99399.47;;;6.59;92.44
13241;BME280;6687;47.790;7.322;2024-02-28T08:51:21;99399.06;;;6.76;92.90
13241;BME280;6687;47.790;7.322;2024-02-28T08:53:49;99396.72;;;6.87;92.15
13241;BME280;6687;47.790;7.322;2024-02-28T08:56:17;99394.25;;;6.90;91.92
13241;BME280;6687;47.790;7.322;2024-02-28T08:58:44;99393.38;;;6.91;90.96
13241;BME280;6687;47.790;7.322;2024-02-28T09:01:13;99389.09;;;6.90;91.84
13241;BME280;6687;47.790;7.322;2024-02-28T09:03:40;99393.94;;;6.78;93.11
13241;BME280;6687;47.790;7.322;2024-02-28T09:06:07;99393.22;;;7.22;91.13
13241;BME280;6687;47.790;7.322;2024-02-28T09:08:34;99384.88;;;7.33;92.06
13241;BME280;6687;47.790;7.322;2024-02-28T09:11:02;99385.25;;;7.11;91.18
13241;BME280;6687;47.790;7.322;2024-02-28T09:13:30;99392.13;;;7.51;90.06
13241;BME280;6687;47.790;7.322;2024-02-28T09:15:57;99392.19;;;7.53;91.10
13241;BME280;6687;47.790;7.322;2024-02-28T09:18:23;99386.94;;;7.50;90.20
13241;BME280;6687;47.790;7.322;2024-02-28T09:20:50;99396.69;;;7.63;89.64
13241;BME280;6687;47.790;7.322;2024-02-28T09:23:17;99395.44;;;7.46;90.07
13241;BME280;6687;47.790;7.322;2024-02-28T09:25:44;99391.06;;;7.42;88.78
13241;BME280;6687;47.790;7.322;2024-02-28T09:28:12;99392.00;;;7.45;89.50
13241;BME280;6687;47.790;7.322;2024-02-28T09:30:41;99397.69;;;7.29;88.65
13241;BME280;6687;47.790;7.322;2024-02-28T09:33:08;99396.81;;;7.28;88.47
13241;BME280;6687;47.790;7.322;2024-02-28T09:35:35;99387.78;;;7.49;87.35
13241;BME280;6687;47.790;7.322;2024-02-28T09:38:02;99395.69;;;7.56;87.49
13241;BME280;6687;47.790;7.322;2024-02-28T09:40:30;99394.75;;;7.53;88.34
13241;BME280;6687;47.790;7.322;2024-02-28T09:43:00;99396.94;;;7.75;86.83
13241;BME280;6687;47.790;7.322;2024-02-28T09:45:29;99387.31;;;7.67;87.56
13241;BME280;6687;47.790;7.322;2024-02-28T09:47:58;99396.34;;;7.89;88.25
13241;BME280;6687;47.790;7.322;2024-02-28T09:50:25;99394.63;;;7.88;87.43
13241;BME280;6687;47.790;7.322;2024-02-28T09:52:52;99393.31;;;7.67;86.26
13241;BME280;6687;47.790;7.322;2024-02-28T09:55:19;99387.66;;;7.85;87.77
13241;BME280;6687;47.790;7.322;2024-02-28T09:57:47;99399.41;;;8.15;87.78
13241;BME280;6687;47.790;7.322;2024-02-28T10:00:16;99394.03;;;8.03;87.22
13241;BME280;6687;47.790;7.322;2024-02-28T10:02:47;99408.63;;;8.01;88.17
13241;BME280;6687;47.790;7.322;2024-02-28T10:05:14;99403.34;;;7.94;86.96
13241;BME280;6687;47.790;7.322;2024-02-28T10:07:41;99398.59;;;8.17;85.80
13241;BME280;6687;47.790;7.322;2024-02-28T10:10:08;99404.94;;;8.35;87.66
13241;BME280;6687;47.790;7.322;2024-02-28T10:12:36;99405.00;;;8.38;87.12
13241;BME280;6687;47.790;7.322;2024-02-28T10:15:04;99404.84;;;8.29;85.91
13241;BME280;6687;47.790;7.322;2024-02-28T10:17:30;99407.03;;;8.54;86.80
13241;BME280;6687;47.790;7.322;2024-02-28T10:19:59;99403.03;;;8.72;90.24
13241;BME280;6687;47.790;7.322;2024-02-28T10:22:26;99400.31;;;8.64;87.72
13241;BME280;6687;47.790;7.322;2024-02-28T10:24:57;99402.28;;;8.79;88.94
13241;BME280;6687;47.790;7.322;2024-02-28T10:27:23;99404.63;;;8.65;87.47
13241;BME280;6687;47.790;7.322;2024-02-28T10:29:50;99405.66;;;8.73;87.92
13241;BME280;6687;47.790;7.322;2024-02-28T10:32:17;99409.78;;;8.64;86.41
13241;BME280;6687;47.790;7.322;2024-02-28T10:34:44;99410.03;;;8.78;85.66
13241;BME280;6687;47.790;7.322;2024-02-28T10:37:13;99407.22;;;8.64;85.06
13241;BME280;6687;47.790;7.322;2024-02-28T10:39:41;99411.06;;;8.90;86.60
13241;BME280;6687;47.790;7.322;2024-02-28T10:42:09;99409.19;;;8.80;84.24
13241;BME280;6687;47.790;7.322;2024-02-28T10:44:38;99400.81;;;8.96;85.13
13241;BME280;6687;47.790;7.322;2024-02-28T10:47:08;99397.84;;;8.70;83.33
13241;BME280;6687;47.790;7.322;2024-02-28T10:49:34;99400.03;;;9.01;83.75
13241;BME280;6687;47.790;7.322;2024-02-28T10:52:03;99394.97;;;9.08;84.86
13241;BME280;6687;47.790;7.322;2024-02-28T10:54:35;99395.91;;;9.12;83.10
13241;BME280;6687;47.790;7.322;2024-02-28T10:57:05;99400.38;;;9.24;84.30
13241;BME280;6687;47.790;7.322;2024-02-28T10:59:32;99398.78;;;9.33;89.28
13241;BME280;6687;47.790;7.322;2024-02-28T11:02:01;99404.69;;;9.25;85.28
13241;BME280;6687;47.790;7.322;2024-02-28T11:04:28;99400.06;;;9.02;82.46
13241;BME280;6687;47.790;7.322;2024-02-28T11:06:55;99399.59;;;9.29;85.59
13241;BME280;6687;47.790;7.322;2024-02-28T11:09:23;99392.13;;;9.49;83.90
13241;BME280;6687;47.790;7.322;2024-02-28T11:11:52;99398.09;;;9.47;83.31
13241;BME280;6687;47.790;7.322;2024-02-28T11:14:21;99398.19;;;9.53;82.55
13241;BME280;6687;47.790;7.322;2024-02-28T11:16:59;99403.16;;;9.38;80.77
13241;BME280;6687;47.790;7.322;2024-02-28T11:19:28;99406.03;;;9.61;83.91
13241;BME280;6687;47.790;7.322;2024-02-28T11:21:55;99397.38;;;9.59;79.66
13241;BME280;6687;47.790;7.322;2024-02-28T11:24:23;99400.00;;;9.60;78.84
13241;BME280;6687;47.790;7.322;2024-02-28T11:26:52;99400.22;;;9.79;79.32
13241;BME280;6687;47.790;7.322;2024-02-28T11:29:23;99395.03;;;9.79;83.49
13241;BME280;6687;47.790;7.322;2024-02-28T11:31:50;99395.03;;;9.79;78.71
13241;BME280;6687;47.790;7.322;2024-02-28T11:34:17;99402.03;;;9.86;80.07
13241;BME280;6687;47.790;7.322;2024-02-28T11:36:47;99397.72;;;9.85;78.82
13241;BME280;6687;47.790;7.322;2024-02-28T11:39:14;99395.25;;;9.95;79.84
13241;BME280;6687;47.790;7.322;2024-02-28T11:41:41;99401.09;;;9.81;79.13
13241;BME280;6687;47.790;7.322;2024-02-28T11:44:12;99402.19;;;9.98;77.28
13241;BME280;6687;47.790;7.322;2024-02-28T11:46:43;99396.16;;;9.99;78.53
13241;BME280;6687;47.790;7.322;2024-02-28T11:49:11;99392.75;;;10.03;78.42
13241;BME280;6687;47.790;7.322;2024-02-28T11:51:40;99395.41;;;10.12;78.46
13241;BME280;6687;47.790;7.322;2024-02-28T11:54:07;99401.50;;;10.16;79.61
13241;BME280;6687;47.790;7.322;2024-02-28T11:56:34;99394.44;;;10.00;77.58
13241;BME280;6687;47.790;7.322;2024-02-28T11:59:01;99399.00;;;10.21;76.42
13241;BME280;6687;47.790;7.322;2024-02-28T12:01:38;99397.13;;;10.07;73.52
13241;BME280;6687;47.790;7.322;2024-02-28T12:04:05;99396.38;;;10.22;77.27
13241;BME280;6687;47.790;7.322;2024-02-28T12:06:34;99399.94;;;10.29;78.26
13241;BME280;6687;47.790;7.322;2024-02-28T12:09:03;99394.00;;;10.38;77.56
13241;BME280;6687;47.790;7.322;2024-02-28T12:11:30;99396.34;;;10.18;74.50
13241;BME280;6687;47.790;7.322;2024-02-28T12:13:57;99392.88;;;10.15;71.80
13241;BME280;6687;47.790;7.322;2024-02-28T12:16:24;99388.03;;;10.46;77.87
13241;BME280;6687;47.790;7.322;2024-02-28T12:18:52;99381.16;;;10.51;79.40
13241;BME280;6687;47.790;7.322;2024-02-28T12:21:19;99381.00;;;10.31;73.55
13241;BME280;6687;47.790;7.322;2024-02-28T12:23:47;99380.13;;;10.34;74.10
13241;BME280;6687;47.790;7.322;2024-02-28T12:26:16;99375.94;;;10.48;76.24
13241;BME280;6687;47.790;7.322;2024-02-28T12:28:43;99375.00;;;10.40;73.84
13241;BME280;6687;47.790;7.322;2024-02-28T12:31:09;99370.72;;;10.41;70.84
13241;BME280;6687;47.790;7.322;2024-02-28T12:33:37;99373.25;;;10.36;68.90
13241;BME280;6687;47.790;7.322;2024-02-28T12:36:05;99368.19;;;10.50;69.59
13241;BME280;6687;47.790;7.322;2024-02-28T12:38:32;99364.84;;;10.62;69.86
13241;BME280;6687;47.790;7.322;2024-02-28T12:40:59;99351.00;;;10.60;69.12
13241;BME280;6687;47.790;7.322;2024-02-28T12:43:26;99352.66;;;10.51;67.62
13241;BME280;6687;47.790;7.322;2024-02-28T12:45:52;99351.06;;;10.67;71.58
13241;BME280;6687;47.790;7.322;2024-02-28T12:48:19;99357.94;;;10.61;66.52
13241;BME280;6687;47.790;7.322;2024-02-28T12:50:46;99349.38;;;10.74;64.47
13241;BME280;6687;47.790;7.322;2024-02-28T12:53:14;99349.38;;;10.74;68.47
13241;BME280;6687;47.790;7.322;2024-02-28T12:55:41;99357.94;;;10.61;64.95
13241;BME280;6687;47.790;7.322;2024-02-28T12:58:09;99344.13;;;10.66;66.63
13241;BME280;6687;47.790;7.322;2024-02-28T13:00:36;99344.34;;;10.95;71.85
13241;BME280;6687;47.790;7.322;2024-02-28T13:03:03;99344.38;;;10.99;70.86
13241;BME280;6687;47.790;7.322;2024-02-28T13:05:30;99333.78;;;10.68;66.00
13241;BME280;6687;47.790;7.322;2024-02-28T13:07:56;99333.88;;;10.80;65.55
13241;BME280;6687;47.790;7.322;2024-02-28T13:10:24;99333.84;;;10.74;63.42
13241;BME280;6687;47.790;7.322;2024-02-28T13:12:51;99330.50;;;10.92;61.09
13241;BME280;6687;47.790;7.322;2024-02-28T13:15:18;99324.34;;;10.76;58.76
13241;BME280;6687;47.790;7.322;2024-02-28T13:17:45;99331.44;;;11.00;70.46
13241;BME280;6687;47.790;7.322;2024-02-28T13:20:15;99325.28;;;10.84;60.92
13241;BME280;6687;47.790;7.322;2024-02-28T13:22:41;99328.75;;;10.89;61.55
13241;BME280;6687;47.790;7.322;2024-02-28T13:25:08;99327.13;;;11.01;63.55
13241;BME280;6687;47.790;7.322;2024-02-28T13:27:37;99322.88;;;11.17;65.12
13241;BME280;6687;47.790;7.322;2024-02-28T13:30:05;99322.81;;;11.03;62.18
13241;BME280;6687;47.790;7.322;2024-02-28T13:32:32;99323.69;;;11.08;61.63
13241;BME280;6687;47.790;7.322;2024-02-28T13:34:59;99330.63;;;11.09;61.86
13241;BME280;6687;47.790;7.322;2024-02-28T13:37:26;99333.28;;;11.18;59.51
13241;BME280;6687;47.790;7.322;2024-02-28T13:39:53;99327.09;;;10.99;56.92
13241;BME280;6687;47.790;7.322;2024-02-28T13:42:20;99334.94;;;11.08;55.30
13241;BME280;6687;47.790;7.322;2024-02-28T13:44:48;99330.69;;;11.18;55.01
13241;BME280;6687;47.790;7.322;2024-02-28T13:47:15;99323.69;;;11.06;52.29
13241;BME280;6687;47.790;7.322;2024-02-28T13:49:41;99322.09;;;11.34;62.38
13241;BME280;6687;47.790;7.322;2024-02-28T13:52:08;99316.84;;;11.24;57.26
13241;BME280;6687;47.790;7.322;2024-02-28T13:54:35;99317.72;;;11.18;58.66
13241;BME280;6687;47.790;7.322;2024-02-28T13:57:02;99317.78;;;11.37;55.00
13241;BME280;6687;47.790;7.322;2024-02-28T13:59:30;99325.50;;;11.27;59.88
13241;BME280;6687;47.790;7.322;2024-02-28T14:01:58;99321.19;;;11.23;56.52
13241;BME280;6687;47.790;7.322;2024-02-28T14:04:25;99325.50;;;11.27;55.08
13241;BME280;6687;47.790;7.322;2024-02-28T14:06:52;99322.91;;;11.18;52.48
13241;BME280;6687;47.790;7.322;2024-02-28T14:09:19;99318.56;;;11.17;52.04
13241;BME280;6687;47.790;7.322;2024-02-28T14:11:45;99315.06;;;11.09;53.35
13241;BME280;6687;47.790;7.322;2024-02-28T14:14:12;99320.34;;;11.33;57.41
13241;BME280;6687;47.790;7.322;2024-02-28T14:16:39;99311.69;;;11.25;50.90
13241;BME280;6687;47.790;7.322;2024-02-28T14:19:07;99321.19;;;11.23;50.81
13241;BME280;6687;47.790;7.322;2024-02-28T14:21:34;99313.44;;;11.31;57.58
13241;BME280;6687;47.790;7.322;2024-02-28T14:24:00;99320.31;;;11.18;52.91
13241;BME280;6687;47.790;7.322;2024-02-28T14:26:27;99320.38;;;11.37;55.21
13241;BME280;6687;47.790;7.322;2024-02-28T14:28:54;99318.63;;;11.32;57.49
13241;BME280;6687;47.790;7.322;2024-02-28T14:31:22;99322.09;;;11.38;60.84
13241;BME280;6687;47.790;7.322;2024-02-28T14:33:49;99320.34;;;11.33;54.16
13241;BME280;6687;47.790;7.322;2024-02-28T14:36:18;99327.22;;;11.16;51.82
13241;BME280;6687;47.790;7.322;2024-02-28T14:38:45;99328.13;;;11.30;55.92
13241;BME280;6687;47.790;7.322;2024-02-28T14:41:12;99327.22;;;11.25;49.52
13241;BME280;6687;47.790;7.322;2024-02-28T14:43:39;99328.03;;;11.13;53.74
13241;BME280;6687;47.790;7.322;2024-02-28T14:46:06;99330.72;;;11.30;53.37
13241;BME280;6687;47.790;7.322;2024-02-28T14:48:35;99329.00;;;11.32;51.72
13241;BME280;6687;47.790;7.322;2024-02-28T14:51:02;99328.97;;;11.29;54.79
13241;BME280;6687;47.790;7.322;2024-02-28T14:53:30;99332.56;;;11.50;60.08
13241;BME280;6687;47.790;7.322;2024-02-28T14:55:56;99328.19;;;11.43;57.75
13241;BME280;6687;47.790;7.322;2024-02-28T14:58:23;99328.13;;;11.30;56.85
13241;BME280;6687;47.790;7.322;2024-02-28T15:00:50;99325.59;;;11.43;56.37
13241;BME280;6687;47.790;7.322;2024-02-28T15:03:17;99335.06;;;11.28;53.99
13241;BME280;6687;47.790;7.322;2024-02-28T15:05:44;99334.13;;;11.17;51.66
13241;BME280;6687;47.790;7.322;2024-02-28T15:08:10;99337.59;;;11.19;53.12
13241;BME280;6687;47.790;7.322;2024-02-28T15:10:38;99340.22;;;11.22;53.94
13241;BME280;6687;47.790;7.322;2024-02-28T15:13:05;99334.19;;;11.35;58.21
13241;BME280;6687;47.790;7.322;2024-02-28T15:15:32;99339.38;;;11.26;56.01
13241;BME280;6687;47.790;7.322;2024-02-28T15:17:59;99336.72;;;11.22;56.44
13241;BME280;6687;47.790;7.322;2024-02-28T15:20:27;99334.09;;;11.11;56.47
13241;BME280;6687;47.790;7.322;2024-02-28T15:22:53;99342.72;;;11.10;55.58
13241;BME280;6687;47.790;7.322;2024-02-28T15:25:20;99336.78;;;11.32;60.21
13241;BME280;6687;47.790;7.322;2024-02-28T15:27:49;99337.63;;;11.25;59.70
13241;BME280;6687;47.790;7.322;2024-02-28T15:30:16;99342.81;;;11.31;59.69
13241;BME280;6687;47.790;7.322;2024-02-28T15:32:42;99340.94;;;11.03;56.61
13241;BME280;6687;47.790;7.322;2024-02-28T15:35:10;99341.91;;;11.22;56.12
13241;BME280;6687;47.790;7.322;2024-02-28T15:37:37;99335.72;;;11.00;56.06
13241;BME280;6687;47.790;7.322;2024-02-28T15:40:04;99339.25;;;11.08;56.67
13241;BME280;6687;47.790;7.322;2024-02-28T15:42:32;99334.13;;;11.22;56.78
13241;BME280;6687;47.790;7.322;2024-02-28T15:45:00;99333.22;;;11.12;56.83
13241;BME280;6687;47.790;7.322;2024-02-28T15:47:27;99335.88;;;11.27;59.97
13241;BME280;6687;47.790;7.322;2024-02-28T15:49:53;99332.44;;;11.25;61.49
13241;BME280;6687;47.790;7.322;2024-02-28T15:52:21;99328.84;;;11.00;57.84
13241;BME280;6687;47.790;7.322;2024-02-28T15:54:48;99330.66;;;11.15;57.98
13241;BME280;6687;47.790;7.322;2024-02-28T15:57:14;99327.16;;;11.11;60.40
13241;BME280;6687;47.790;7.322;2024-02-28T15:59:41;99328.97;;;11.23;60.50
13241;BME280;6687;47.790;7.322;2024-02-28T16:02:09;99333.28;;;11.27;60.64
13241;BME280;6687;47.790;7.322;2024-02-28T16:04:37;99327.13;;;11.01;57.14
13241;BME280;6687;47.790;7.322;2024-02-28T16:07:04;99327.16;;;11.07;57.55
13241;BME280;6687;47.790;7.322;2024-02-28T16:09:30;99327.13;;;11.04;58.87
13241;BME280;6687;47.790;7.322;2024-02-28T16:11:57;99328.03;;;11.13;59.47
13241;BME280;6687;47.790;7.322;2024-02-28T16:14:24;99327.06;;;10.94;60.96
13241;BME280;6687;47.790;7.322;2024-02-28T16:16:50;99326.28;;;11.08;60.57
13241;BME280;6687;47.790;7.322;2024-02-28T16:19:19;99334.75;;;10.82;59.73
13241;BME280;6687;47.790;7.322;2024-02-28T16:21:45;99339.88;;;10.71;58.85
13241;BME280;6687;47.790;7.322;2024-02-28T16:24:14;99332.13;;;10.78;59.11
13241;BME280;6687;47.790;7.322;2024-02-28T16:26:41;99337.41;;;10.88;60.60
13241;BME280;6687;47.790;7.322;2024-02-28T16:29:08;99337.38;;;10.85;60.78
13241;BME280;6687;47.790;7.322;2024-02-28T16:31:35;99331.25;;;10.72;60.60
13241;BME280;6687;47.790;7.322;2024-02-28T16:34:02;99342.41;;;10.65;62.61
13241;BME280;6687;47.790;7.322;2024-02-28T16:36:30;99337.41;;;10.91;62.49
13241;BME280;6687;47.790;7.322;2024-02-28T16:38:57;99331.34;;;10.85;65.91
13241;BME280;6687;47.790;7.322;2024-02-28T16:41:24;99336.44;;;10.72;62.75
13241;BME280;6687;47.790;7.322;2024-02-28T16:43:50;99339.13;;;10.89;64.26
13241;BME280;6687;47.790;7.322;2024-02-28T16:46:20;99340.81;;;10.86;64.18
13241;BME280;6687;47.790;7.322;2024-02-28T16:48:46;99338.84;;;10.49;63.51
13241;BME280;6687;47.790;7.322;2024-02-28T16:51:13;99340.59;;;10.53;64.27
13241;BME280;6687;47.790;7.322;2024-02-28T16:53:41;99343.13;;;10.47;64.69
13241;BME280;6687;47.790;7.322;2024-02-28T16:56:08;99343.91;;;10.37;66.10
13241;BME280;6687;47.790;7.322;2024-02-28T16:58:35;99352.38;;;10.24;65.00
13241;BME280;6687;47.790;7.322;2024-02-28T17:01:06;99353.41;;;10.35;65.44
13241;BME280;6687;47.790;7.322;2024-02-28T17:03:32;99349.97;;;10.39;65.95
13241;BME280;6687;47.790;7.322;2024-02-28T17:05:59;99349.94;;;10.36;67.12
13241;BME280;6687;47.790;7.322;2024-02-28T17:08:26;99354.28;;;10.40;66.93
13241;BME280;6687;47.790;7.322;2024-02-28T17:10:54;99358.25;;;10.06;66.69
13241;BME280;6687;47.790;7.322;2024-02-28T17:13:21;99360.88;;;10.10;68.35
13241;BME280;6687;47.790;7.322;2024-02-28T17:15:48;99363.31;;;9.93;67.80
13241;BME280;6687;47.790;7.322;2024-02-28T17:18:19;99360.75;;;9.95;68.00
13241;BME280;6687;47.790;7.322;2024-02-28T17:20:46;99367.56;;;9.90;68.79
13241;BME280;6687;47.790;7.322;2024-02-28T17:23:12;99375.38;;;9.91;68.34
13241;BME280;6687;47.790;7.322;2024-02-28T17:25:39;99371.97;;;9.95;69.47
13241;BME280;6687;47.790;7.322;2024-02-28T17:28:07;99383.81;;;9.75;69.09
13241;BME280;6687;47.790;7.322;2024-02-28T17:30:34;99382.00;;;9.69;69.40
13241;BME280;6687;47.790;7.322;2024-02-28T17:33:01;99386.31;;;9.67;69.89
13241;BME280;6687;47.790;7.322;2024-02-28T17:35:27;99386.03;;;9.49;70.69
13241;BME280;6687;47.790;7.322;2024-02-28T17:37:54;99391.31;;;9.53;70.28
13241;BME280;6687;47.790;7.322;2024-02-28T17:40:21;99390.97;;;9.27;70.63
13241;BME280;6687;47.790;7.322;2024-02-28T17:42:49;99388.50;;;9.38;70.95
13241;BME280;6687;47.790;7.322;2024-02-28T17:45:17;99391.75;;;9.25;71.34
13241;BME280;6687;47.790;7.322;2024-02-28T17:47:45;99392.66;;;9.25;71.87
13241;BME280;6687;47.790;7.322;2024-02-28T17:50:12;99392.81;;;9.38;71.85
13241;BME280;6687;47.790;7.322;2024-02-28T17:52:40;99401.38;;;9.33;72.19
13241;BME280;6687;47.790;7.322;2024-02-28T17:55:08;99403.56;;;9.06;73.34
13241;BME280;6687;47.790;7.322;2024-02-28T17:57:35;99402.69;;;9.07;73.72
13241;BME280;6687;47.790;7.322;2024-02-28T18:00:02;99404.28;;;8.95;73.89
13241;BME280;6687;47.790;7.322;2024-02-28T18:02:33;99404.38;;;9.02;73.75
13241;BME280;6687;47.790;7.322;2024-02-28T18:05:00;99414.47;;;8.86;74.07
13241;BME280;6687;47.790;7.322;2024-02-28T18:07:27;99412.25;;;9.11;73.60
13241;BME280;6687;47.790;7.322;2024-02-28T18:09:53;99415.97;;;8.75;74.80
13241;BME280;6687;47.790;7.322;2024-02-28T18:12:20;99420.13;;;8.65;75.00
13241;BME280;6687;47.790;7.322;2024-02-28T18:14:47;99414.75;;;8.53;75.73
13241;BME280;6687;47.790;7.322;2024-02-28T18:17:13;99411.75;;;8.79;75.48
13241;BME280;6687;47.790;7.322;2024-02-28T18:19:41;99419.25;;;8.65;75.84
13241;BME280;6687;47.790;7.322;2024-02-28T18:22:08;99414.47;;;8.86;75.89
13241;BME280;6687;47.790;7.322;2024-02-28T18:24:37;99421.81;;;8.63;76.39
13241;BME280;6687;47.790;7.322;2024-02-28T18:27:04;99422.00;;;8.74;76.00
13241;BME280;6687;47.790;7.322;2024-02-28T18:29:34;99426.09;;;8.60;76.03
13241;BME280;6687;47.790;7.322;2024-02-28T18:32:01;99424.50;;;8.68;75.29
13241;BME280;6687;47.790;7.322;2024-02-28T18:34:27;99420.22;;;8.70;75.55
13241;BME280;6687;47.790;7.322;2024-02-28T18:36:56;99424.28;;;8.55;75.07
13241;BME280;6687;47.790;7.322;2024-02-28T18:39:23;99425.41;;;8.71;73.98
13241;BME280;6687;47.790;7.322;2024-02-28T18:41:50;99421.75;;;8.59;73.51
13241;BME280;6687;47.790;7.322;2024-02-28T18:44:17;99432.22;;;8.66;72.85
13241;BME280;6687;47.790;7.322;2024-02-28T18:46:44;99428.06;;;8.76;73.00
13241;BME280;6687;47.790;7.322;2024-02-28T18:49:11;99426.28;;;8.72;70.43
13241;BME280;6687;47.790;7.322;2024-02-28T18:51:38;99418.56;;;8.73;70.26
13241;BME280;6687;47.790;7.322;2024-02-28T18:54:07;99422.66;;;8.62;69.15
13241;BME280;6687;47.790;7.322;2024-02-28T18:56:34;99419.38;;;8.71;68.26
13241;BME280;6687;47.790;7.322;2024-02-28T18:59:01;99414.00;;;8.59;68.21
13241;BME280;6687;47.790;7.322;2024-02-28T19:01:29;99417.56;;;8.67;69.43
13241;BME280;6687;47.790;7.322;2024-02-28T19:03:55;99424.19;;;8.51;68.18
13241;BME280;6687;47.790;7.322;2024-02-28T19:06:22;99412.41;;;8.67;68.43
13241;BME280;6687;47.790;7.322;2024-02-28T19:08:49;99421.38;;;8.87;69.05
13241;BME280;6687;47.790;7.322;2024-02-28T19:11:19;99415.59;;;8.50;67.22
13241;BME280;6687;47.790;7.322;2024-02-28T19:13:46;99403.75;;;8.65;68.10
13241;BME280;6687;47.790;7.322;2024-02-28T19:16:12;99403.03;;;8.72;67.79
13241;BME280;6687;47.790;7.322;2024-02-28T19:18:39;99396.97;;;8.70;68.38
13241;BME280;6687;47.790;7.322;2024-02-28T19:21:07;99396.78;;;8.58;67.32
13241;BME280;6687;47.790;7.322;2024-02-28T19:23:34;99395.31;;;8.75;68.52
13241;BME280;6687;47.790;7.322;2024-02-28T19:26:03;99395.91;;;8.59;67.13
13241;BME280;6687;47.790;7.322;2024-02-28T19:28:31;99408.47;;;8.40;67.10
13241;BME280;6687;47.790;7.322;2024-02-28T19:30:57;99400.66;;;8.37;66.96
13241;BME280;6687;47.790;7.322;2024-02-28T19:33:24;99398.47;;;8.55;67.69
13241;BME280;6687;47.790;7.322;2024-02-28T19:35:51;99401.53;;;8.36;67.00